sensor_id;sensor_type;location;lat;lon;timestamp;P1;durP1;ratioP1;P2;durP2;ratioP2
12141;SDS011;6134;59.284;18.022;2023-03-17T00:01:23;5.40;;;2.50;;
12141;SDS011;6134;59.284;18.022;2023-03-17T00:03:52;6.68;;;2.47;;
12141;SDS011;6134;59.284;18.022;2023-03-17T00:06:22;5.25;;;2.55;;
12141;SDS011;6134;59.284;18.022;2023-03-17T00:08:53;5.30;;;2.70;;
12141;SDS011;6134;59.284;18.022;2023-03-17T00:11:23;3.90;;;2.25;;
12141;SDS011;6134;59.284;18.022;2023-03-17T00:13:51;3.67;;;2.58;;
12141;SDS011;6134;59.284;18.022;2023-03-17T00:16:22;4.65;;;2.00;;
12141;SDS011;6134;59.284;18.022;2023-03-17T00:18:52;6.22;;;2.83;;
12141;SDS011;6134;59.284;18.022;2023-03-17T00:21:23;6.50;;;2.60;;
12141;SDS011;6134;59.284;18.022;2023-03-17T00:23:53;7.32;;;2.45;;
12141;SDS011;6134;59.284;18.022;2023-03-17T00:26:22;5.50;;;2.65;;
12141;SDS011;6134;59.284;18.022;2023-03-17T00:28:52;5.03;;;2.20;;
12141;SDS011;6134;59.284;18.022;2023-03-17T00:31:23;7.22;;;2.78;;
12141;SDS011;6134;59.284;18.022;2023-03-17T00:33:53;4.13;;;2.10;;
12141;SDS011;6134;59.284;18.022;2023-03-17T00:36:22;6.50;;;2.17;;
12141;SDS011;6134;59.284;18.022;2023-03-17T00:38:52;4.53;;;2.42;;
12141;SDS011;6134;59.284;18.022;2023-03-17T00:41:23;3.47;;;2.25;;
12141;SDS011;6134;59.284;18.022;2023-03-17T00:43:52;4.28;;;2.20;;
12141;SDS011;6134;59.284;18.022;2023-03-17T00:46:24;4.75;;;2.30;;
12141;SDS011;6134;59.284;18.022;2023-03-17T00:48:55;5.82;;;2.20;;
12141;SDS011;6134;59.284;18.022;2023-03-17T00:51:25;4.70;;;2.38;;
12141;SDS011;6134;59.284;18.022;2023-03-17T00:53:54;3.38;;;2.47;;
12141;SDS011;6134;59.284;18.022;2023-03-17T00:56:26;4.38;;;2.15;;
12141;SDS011;6134;59.284;18.022;2023-03-17T00:58:55;3.97;;;2.50;;
12141;SDS011;6134;59.284;18.022;2023-03-17T01:01:25;3.95;;;2.45;;
12141;SDS011;6134;59.284;18.022;2023-03-17T01:03:54;4.20;;;2.70;;
12141;SDS011;6134;59.284;18.022;2023-03-17T01:06:23;5.18;;;2.55;;
12141;SDS011;6134;59.284;18.022;2023-03-17T01:08:51;4.47;;;2.65;;
12141;SDS011;6134;59.284;18.022;2023-03-17T01:11:20;6.55;;;2.80;;
12141;SDS011;6134;59.284;18.022;2023-03-17T01:13:49;4.53;;;2.45;;
12141;SDS011;6134;59.284;18.022;2023-03-17T01:16:18;4.38;;;2.38;;
12141;SDS011;6134;59.284;18.022;2023-03-17T01:18:49;6.47;;;2.40;;
12141;SDS011;6134;59.284;18.022;2023-03-17T01:21:17;6.25;;;2.47;;
12141;SDS011;6134;59.284;18.022;2023-03-17T01:23:46;5.07;;;2.70;;
12141;SDS011;6134;59.284;18.022;2023-03-17T01:26:15;3.63;;;2.60;;
12141;SDS011;6134;59.284;18.022;2023-03-17T01:28:44;3.15;;;2.30;;
12141;SDS011;6134;59.284;18.022;2023-03-17T01:31:13;5.95;;;2.58;;
12141;SDS011;6134;59.284;18.022;2023-03-17T01:33:42;4.75;;;2.50;;
12141;SDS011;6134;59.284;18.022;2023-03-17T01:36:13;4.22;;;2.67;;
12141;SDS011;6134;59.284;18.022;2023-03-17T01:38:43;6.88;;;2.67;;
12141;SDS011;6134;59.284;18.022;2023-03-17T01:41:13;4.40;;;2.00;;
12141;SDS011;6134;59.284;18.022;2023-03-17T01:43:42;7.07;;;3.00;;
12141;SDS011;6134;59.284;18.022;2023-03-17T01:46:20;6.68;;;2.65;;
12141;SDS011;6134;59.284;18.022;2023-03-17T01:51:37;3.03;;;2.25;;
12141;SDS011;6134;59.284;18.022;2023-03-17T01:54:10;4.28;;;2.65;;
12141;SDS011;6134;59.284;18.022;2023-03-17T01:56:40;3.50;;;2.10;;
12141;SDS011;6134;59.284;18.022;2023-03-17T01:59:11;6.28;;;2.67;;
12141;SDS011;6134;59.284;18.022;2023-03-17T02:01:43;7.47;;;2.90;;
12141;SDS011;6134;59.284;18.022;2023-03-17T02:04:13;5.13;;;2.25;;
12141;SDS011;6134;59.284;18.022;2023-03-17T02:06:43;3.70;;;2.33;;
12141;SDS011;6134;59.284;18.022;2023-03-17T02:09:23;3.03;;;2.20;;
12141;SDS011;6134;59.284;18.022;2023-03-17T02:11:52;5.15;;;2.28;;
12141;SDS011;6134;59.284;18.022;2023-03-17T02:14:21;4.32;;;2.58;;
12141;SDS011;6134;59.284;18.022;2023-03-17T02:16:51;3.63;;;2.40;;
12141;SDS011;6134;59.284;18.022;2023-03-17T02:19:20;5.82;;;2.47;;
12141;SDS011;6134;59.284;18.022;2023-03-17T02:21:51;4.35;;;2.20;;
12141;SDS011;6134;59.284;18.022;2023-03-17T02:24:21;5.75;;;2.88;;
12141;SDS011;6134;59.284;18.022;2023-03-17T02:26:52;3.92;;;2.40;;
12141;SDS011;6134;59.284;18.022;2023-03-17T02:29:21;3.35;;;2.60;;
12141;SDS011;6134;59.284;18.022;2023-03-17T02:31:50;3.88;;;2.78;;
12141;SDS011;6134;59.284;18.022;2023-03-17T02:34:21;7.07;;;2.50;;
12141;SDS011;6134;59.284;18.022;2023-03-17T02:36:51;3.60;;;2.22;;
12141;SDS011;6134;59.284;18.022;2023-03-17T02:39:20;4.95;;;1.95;;
12141;SDS011;6134;59.284;18.022;2023-03-17T02:41:49;7.90;;;2.38;;
12141;SDS011;6134;59.284;18.022;2023-03-17T02:44:18;5.13;;;2.20;;
12141;SDS011;6134;59.284;18.022;2023-03-17T02:46:47;4.25;;;2.08;;
12141;SDS011;6134;59.284;18.022;2023-03-17T02:49:16;5.13;;;2.17;;
12141;SDS011;6134;59.284;18.022;2023-03-17T02:51:45;4.03;;;2.13;;
12141;SDS011;6134;59.284;18.022;2023-03-17T02:54:15;4.90;;;2.20;;
12141;SDS011;6134;59.284;18.022;2023-03-17T02:56:44;3.17;;;1.55;;
12141;SDS011;6134;59.284;18.022;2023-03-17T02:59:13;2.95;;;1.85;;
12141;SDS011;6134;59.284;18.022;2023-03-17T03:01:42;3.25;;;1.60;;
12141;SDS011;6134;59.284;18.022;2023-03-17T03:04:14;6.20;;;2.15;;
12141;SDS011;6134;59.284;18.022;2023-03-17T03:06:43;4.47;;;2.13;;
12141;SDS011;6134;59.284;18.022;2023-03-17T03:09:12;5.85;;;1.85;;
12141;SDS011;6134;59.284;18.022;2023-03-17T03:11:44;2.65;;;1.50;;
12141;SDS011;6134;59.284;18.022;2023-03-17T03:14:14;3.40;;;1.70;;
12141;SDS011;6134;59.284;18.022;2023-03-17T03:16:42;5.18;;;1.65;;
12141;SDS011;6134;59.284;18.022;2023-03-17T03:19:11;4.32;;;1.60;;
12141;SDS011;6134;59.284;18.022;2023-03-17T03:21:40;2.55;;;1.90;;
12141;SDS011;6134;59.284;18.022;2023-03-17T03:24:09;4.05;;;1.88;;
12141;SDS011;6134;59.284;18.022;2023-03-17T03:26:37;4.05;;;1.73;;
12141;SDS011;6134;59.284;18.022;2023-03-17T03:29:08;6.70;;;2.13;;
12141;SDS011;6134;59.284;18.022;2023-03-17T03:31:37;3.10;;;1.60;;
12141;SDS011;6134;59.284;18.022;2023-03-17T03:34:06;2.55;;;1.35;;
12141;SDS011;6134;59.284;18.022;2023-03-17T03:36:34;4.97;;;1.83;;
12141;SDS011;6134;59.284;18.022;2023-03-17T03:39:03;3.28;;;1.50;;
12141;SDS011;6134;59.284;18.022;2023-03-17T03:41:33;5.00;;;2.10;;
12141;SDS011;6134;59.284;18.022;2023-03-17T03:44:02;2.50;;;1.50;;
12141;SDS011;6134;59.284;18.022;2023-03-17T03:46:32;3.28;;;1.60;;
12141;SDS011;6134;59.284;18.022;2023-03-17T03:49:01;6.75;;;2.00;;
12141;SDS011;6134;59.284;18.022;2023-03-17T03:51:30;3.47;;;1.38;;
12141;SDS011;6134;59.284;18.022;2023-03-17T03:53:58;3.20;;;1.67;;
12141;SDS011;6134;59.284;18.022;2023-03-17T03:56:27;6.18;;;1.98;;
12141;SDS011;6134;59.284;18.022;2023-03-17T03:58:56;3.08;;;1.70;;
12141;SDS011;6134;59.284;18.022;2023-03-17T04:01:25;4.05;;;1.75;;
12141;SDS011;6134;59.284;18.022;2023-03-17T04:03:55;4.63;;;1.83;;
12141;SDS011;6134;59.284;18.022;2023-03-17T04:06:24;3.38;;;1.60;;
12141;SDS011;6134;59.284;18.022;2023-03-17T04:08:52;3.53;;;2.05;;
12141;SDS011;6134;59.284;18.022;2023-03-17T04:11:24;3.50;;;1.85;;
12141;SDS011;6134;59.284;18.022;2023-03-17T04:13:53;1.92;;;1.40;;
12141;SDS011;6134;59.284;18.022;2023-03-17T04:16:21;3.05;;;1.58;;
12141;SDS011;6134;59.284;18.022;2023-03-17T04:18:50;1.92;;;1.50;;
12141;SDS011;6134;59.284;18.022;2023-03-17T04:21:20;4.88;;;1.52;;
12141;SDS011;6134;59.284;18.022;2023-03-17T04:23:49;3.25;;;1.60;;
12141;SDS011;6134;59.284;18.022;2023-03-17T04:26:18;2.38;;;1.50;;
12141;SDS011;6134;59.284;18.022;2023-03-17T04:28:48;2.70;;;1.60;;
12141;SDS011;6134;59.284;18.022;2023-03-17T04:31:18;1.90;;;1.60;;
12141;SDS011;6134;59.284;18.022;2023-03-17T04:33:47;4.20;;;1.40;;
12141;SDS011;6134;59.284;18.022;2023-03-17T04:36:16;3.20;;;1.45;;
12141;SDS011;6134;59.284;18.022;2023-03-17T04:38:47;1.65;;;1.20;;
12141;SDS011;6134;59.284;18.022;2023-03-17T04:41:16;4.20;;;1.55;;
12141;SDS011;6134;59.284;18.022;2023-03-17T04:43:45;2.67;;;1.20;;
12141;SDS011;6134;59.284;18.022;2023-03-17T04:46:13;2.40;;;1.42;;
12141;SDS011;6134;59.284;18.022;2023-03-17T04:48:42;5.97;;;1.70;;
12141;SDS011;6134;59.284;18.022;2023-03-17T04:51:11;2.03;;;1.30;;
12141;SDS011;6134;59.284;18.022;2023-03-17T04:53:40;3.65;;;1.67;;
12141;SDS011;6134;59.284;18.022;2023-03-17T04:56:11;4.20;;;1.25;;
12141;SDS011;6134;59.284;18.022;2023-03-17T04:58:40;4.07;;;1.58;;
12141;SDS011;6134;59.284;18.022;2023-03-17T05:01:08;2.47;;;1.40;;
12141;SDS011;6134;59.284;18.022;2023-03-17T05:03:37;4.35;;;1.75;;
12141;SDS011;6134;59.284;18.022;2023-03-17T05:06:06;5.53;;;1.65;;
12141;SDS011;6134;59.284;18.022;2023-03-17T05:08:35;3.70;;;1.45;;
12141;SDS011;6134;59.284;18.022;2023-03-17T05:11:04;1.55;;;1.00;;
12141;SDS011;6134;59.284;18.022;2023-03-17T05:13:34;3.90;;;1.23;;
12141;SDS011;6134;59.284;18.022;2023-03-17T05:16:03;3.42;;;1.73;;
12141;SDS011;6134;59.284;18.022;2023-03-17T05:18:32;1.90;;;1.50;;
12141;SDS011;6134;59.284;18.022;2023-03-17T05:21:01;2.80;;;1.40;;
12141;SDS011;6134;59.284;18.022;2023-03-17T05:23:30;3.40;;;1.52;;
12141;SDS011;6134;59.284;18.022;2023-03-17T05:25:59;2.83;;;1.65;;
12141;SDS011;6134;59.284;18.022;2023-03-17T05:28:28;2.08;;;1.30;;
12141;SDS011;6134;59.284;18.022;2023-03-17T05:30:59;3.40;;;1.17;;
12141;SDS011;6134;59.284;18.022;2023-03-17T05:33:29;2.60;;;1.17;;
12141;SDS011;6134;59.284;18.022;2023-03-17T05:35:57;2.08;;;1.20;;
12141;SDS011;6134;59.284;18.022;2023-03-17T05:38:27;1.60;;;1.45;;
12141;SDS011;6134;59.284;18.022;2023-03-17T05:40:56;3.15;;;1.38;;
12141;SDS011;6134;59.284;18.022;2023-03-17T05:43:25;2.50;;;1.10;;
12141;SDS011;6134;59.284;18.022;2023-03-17T05:45:54;3.35;;;1.45;;
12141;SDS011;6134;59.284;18.022;2023-03-17T05:48:25;1.65;;;0.90;;
12141;SDS011;6134;59.284;18.022;2023-03-17T05:50:53;2.65;;;1.27;;
12141;SDS011;6134;59.284;18.022;2023-03-17T05:53:22;1.90;;;0.98;;
12141;SDS011;6134;59.284;18.022;2023-03-17T05:55:51;1.52;;;0.98;;
12141;SDS011;6134;59.284;18.022;2023-03-17T05:58:20;1.35;;;1.00;;
12141;SDS011;6134;59.284;18.022;2023-03-17T06:00:49;2.50;;;1.02;;
12141;SDS011;6134;59.284;18.022;2023-03-17T06:03:18;1.70;;;1.05;;
12141;SDS011;6134;59.284;18.022;2023-03-17T06:05:49;1.27;;;0.80;;
12141;SDS011;6134;59.284;18.022;2023-03-17T06:08:17;1.38;;;0.95;;
12141;SDS011;6134;59.284;18.022;2023-03-17T06:10:46;1.98;;;0.90;;
12141;SDS011;6134;59.284;18.022;2023-03-17T06:13:15;2.97;;;0.75;;
12141;SDS011;6134;59.284;18.022;2023-03-17T06:15:44;1.48;;;0.80;;
12141;SDS011;6134;59.284;18.022;2023-03-17T06:18:15;0.95;;;0.88;;
12141;SDS011;6134;59.284;18.022;2023-03-17T06:20:45;1.77;;;0.90;;
12141;SDS011;6134;59.284;18.022;2023-03-17T06:23:15;3.13;;;1.40;;
12141;SDS011;6134;59.284;18.022;2023-03-17T06:25:44;1.75;;;1.10;;
12141;SDS011;6134;59.284;18.022;2023-03-17T06:28:13;2.42;;;0.98;;
12141;SDS011;6134;59.284;18.022;2023-03-17T06:30:42;2.47;;;1.30;;
12141;SDS011;6134;59.284;18.022;2023-03-17T06:33:11;1.13;;;0.80;;
12141;SDS011;6134;59.284;18.022;2023-03-17T06:35:41;4.40;;;1.10;;
12141;SDS011;6134;59.284;18.022;2023-03-17T06:38:11;1.77;;;0.90;;
12141;SDS011;6134;59.284;18.022;2023-03-17T06:40:41;2.17;;;1.00;;
12141;SDS011;6134;59.284;18.022;2023-03-17T06:43:11;1.30;;;1.17;;
12141;SDS011;6134;59.284;18.022;2023-03-17T06:45:42;1.52;;;1.00;;
12141;SDS011;6134;59.284;18.022;2023-03-17T06:48:11;2.05;;;1.13;;
12141;SDS011;6134;59.284;18.022;2023-03-17T06:50:40;1.73;;;1.08;;
12141;SDS011;6134;59.284;18.022;2023-03-17T06:53:09;2.00;;;0.95;;
12141;SDS011;6134;59.284;18.022;2023-03-17T06:55:38;4.03;;;1.05;;
12141;SDS011;6134;59.284;18.022;2023-03-17T06:58:09;3.05;;;0.93;;
12141;SDS011;6134;59.284;18.022;2023-03-17T07:00:38;1.75;;;0.95;;
12141;SDS011;6134;59.284;18.022;2023-03-17T07:03:07;6.43;;;0.98;;
12141;SDS011;6134;59.284;18.022;2023-03-17T07:05:36;2.13;;;1.10;;
12141;SDS011;6134;59.284;18.022;2023-03-17T07:08:06;2.95;;;1.10;;
12141;SDS011;6134;59.284;18.022;2023-03-17T07:10:35;1.58;;;0.85;;
12141;SDS011;6134;59.284;18.022;2023-03-17T07:13:03;2.30;;;1.00;;
12141;SDS011;6134;59.284;18.022;2023-03-17T07:15:35;1.35;;;0.90;;
12141;SDS011;6134;59.284;18.022;2023-03-17T07:18:04;0.85;;;0.82;;
12141;SDS011;6134;59.284;18.022;2023-03-17T07:20:33;1.30;;;0.90;;
12141;SDS011;6134;59.284;18.022;2023-03-17T07:23:02;3.00;;;0.90;;
12141;SDS011;6134;59.284;18.022;2023-03-17T07:25:31;2.65;;;0.93;;
12141;SDS011;6134;59.284;18.022;2023-03-17T07:28:02;2.22;;;0.98;;
12141;SDS011;6134;59.284;18.022;2023-03-17T07:30:31;1.92;;;0.70;;
12141;SDS011;6134;59.284;18.022;2023-03-17T07:33:01;3.55;;;1.30;;
12141;SDS011;6134;59.284;18.022;2023-03-17T07:35:30;3.00;;;1.00;;
12141;SDS011;6134;59.284;18.022;2023-03-17T07:38:00;2.17;;;1.00;;
12141;SDS011;6134;59.284;18.022;2023-03-17T07:40:29;1.38;;;1.13;;
12141;SDS011;6134;59.284;18.022;2023-03-17T07:43:00;2.40;;;1.00;;
12141;SDS011;6134;59.284;18.022;2023-03-17T07:45:30;2.35;;;0.80;;
12141;SDS011;6134;59.284;18.022;2023-03-17T07:48:02;3.08;;;1.17;;
12141;SDS011;6134;59.284;18.022;2023-03-17T07:50:31;2.35;;;1.15;;
12141;SDS011;6134;59.284;18.022;2023-03-17T07:53:00;1.42;;;1.02;;
12141;SDS011;6134;59.284;18.022;2023-03-17T07:55:29;1.17;;;0.95;;
12141;SDS011;6134;59.284;18.022;2023-03-17T07:57:58;1.73;;;1.17;;
12141;SDS011;6134;59.284;18.022;2023-03-17T08:00:27;1.67;;;0.82;;
12141;SDS011;6134;59.284;18.022;2023-03-17T08:02:57;2.03;;;1.20;;
12141;SDS011;6134;59.284;18.022;2023-03-17T08:05:37;2.67;;;1.10;;
12141;SDS011;6134;59.284;18.022;2023-03-17T08:08:06;1.58;;;1.02;;
12141;SDS011;6134;59.284;18.022;2023-03-17T08:10:36;1.92;;;1.10;;
12141;SDS011;6134;59.284;18.022;2023-03-17T08:13:05;1.13;;;0.93;;
12141;SDS011;6134;59.284;18.022;2023-03-17T08:15:33;1.90;;;1.30;;
12141;SDS011;6134;59.284;18.022;2023-03-17T08:18:03;1.10;;;0.90;;
12141;SDS011;6134;59.284;18.022;2023-03-17T08:20:32;3.28;;;1.10;;
12141;SDS011;6134;59.284;18.022;2023-03-17T08:23:03;0.95;;;0.88;;
12141;SDS011;6134;59.284;18.022;2023-03-17T08:25:32;2.55;;;1.05;;
12141;SDS011;6134;59.284;18.022;2023-03-17T08:28:01;1.83;;;1.00;;
12141;SDS011;6134;59.284;18.022;2023-03-17T08:30:30;2.78;;;1.42;;
12141;SDS011;6134;59.284;18.022;2023-03-17T08:33:01;2.40;;;1.20;;
12141;SDS011;6134;59.284;18.022;2023-03-17T08:35:30;2.45;;;1.10;;
12141;SDS011;6134;59.284;18.022;2023-03-17T08:37:59;2.28;;;1.10;;
12141;SDS011;6134;59.284;18.022;2023-03-17T08:40:29;4.63;;;1.20;;
12141;SDS011;6134;59.284;18.022;2023-03-17T08:42:58;1.42;;;1.00;;
12141;SDS011;6134;59.284;18.022;2023-03-17T08:45:27;1.83;;;1.20;;
12141;SDS011;6134;59.284;18.022;2023-03-17T08:47:56;2.85;;;1.42;;
12141;SDS011;6134;59.284;18.022;2023-03-17T08:50:25;3.20;;;1.00;;
12141;SDS011;6134;59.284;18.022;2023-03-17T08:52:55;2.78;;;1.25;;
12141;SDS011;6134;59.284;18.022;2023-03-17T08:55:24;3.90;;;1.73;;
12141;SDS011;6134;59.284;18.022;2023-03-17T08:57:55;2.97;;;1.30;;
12141;SDS011;6134;59.284;18.022;2023-03-17T09:00:24;1.90;;;1.20;;
12141;SDS011;6134;59.284;18.022;2023-03-17T09:02:53;3.63;;;1.10;;
12141;SDS011;6134;59.284;18.022;2023-03-17T09:05:24;3.20;;;1.10;;
12141;SDS011;6134;59.284;18.022;2023-03-17T09:07:52;2.38;;;1.00;;
12141;SDS011;6134;59.284;18.022;2023-03-17T09:10:21;2.65;;;1.02;;
12141;SDS011;6134;59.284;18.022;2023-03-17T09:12:51;1.40;;;1.00;;
12141;SDS011;6134;59.284;18.022;2023-03-17T09:15:21;1.75;;;1.15;;
12141;SDS011;6134;59.284;18.022;2023-03-17T09:17:50;3.13;;;1.10;;
12141;SDS011;6134;59.284;18.022;2023-03-17T09:20:19;1.60;;;1.08;;
12141;SDS011;6134;59.284;18.022;2023-03-17T09:22:48;2.30;;;0.93;;
12141;SDS011;6134;59.284;18.022;2023-03-17T09:25:17;1.83;;;0.80;;
12141;SDS011;6134;59.284;18.022;2023-03-17T09:27:46;3.08;;;1.00;;
12141;SDS011;6134;59.284;18.022;2023-03-17T09:30:15;1.75;;;0.80;;
12141;SDS011;6134;59.284;18.022;2023-03-17T09:32:45;1.70;;;1.10;;
12141;SDS011;6134;59.284;18.022;2023-03-17T09:35:14;3.28;;;1.48;;
12141;SDS011;6134;59.284;18.022;2023-03-17T09:37:43;3.35;;;1.23;;
12141;SDS011;6134;59.284;18.022;2023-03-17T09:40:13;1.75;;;0.85;;
12141;SDS011;6134;59.284;18.022;2023-03-17T09:42:50;1.35;;;0.80;;
12141;SDS011;6134;59.284;18.022;2023-03-17T09:45:27;2.25;;;1.10;;
12141;SDS011;6134;59.284;18.022;2023-03-17T09:48:02;4.57;;;1.17;;
12141;SDS011;6134;59.284;18.022;2023-03-17T09:50:36;3.20;;;1.00;;
12141;SDS011;6134;59.284;18.022;2023-03-17T09:53:11;1.92;;;0.80;;
12141;SDS011;6134;59.284;18.022;2023-03-17T09:55:40;3.97;;;1.25;;
12141;SDS011;6134;59.284;18.022;2023-03-17T09:58:09;1.40;;;0.80;;
12141;SDS011;6134;59.284;18.022;2023-03-17T10:00:39;0.73;;;0.73;;
12141;SDS011;6134;59.284;18.022;2023-03-17T10:03:09;2.13;;;0.88;;
12141;SDS011;6134;59.284;18.022;2023-03-17T10:05:39;3.38;;;0.85;;
12141;SDS011;6134;59.284;18.022;2023-03-17T10:08:09;1.25;;;0.60;;
12141;SDS011;6134;59.284;18.022;2023-03-17T10:10:56;0.70;;;0.70;;
12141;SDS011;6134;59.284;18.022;2023-03-17T10:13:32;5.20;;;0.80;;
12141;SDS011;6134;59.284;18.022;2023-03-17T10:16:05;2.38;;;0.93;;
12141;SDS011;6134;59.284;18.022;2023-03-17T10:18:38;1.58;;;0.77;;
12141;SDS011;6134;59.284;18.022;2023-03-17T10:21:09;1.88;;;1.00;;
12141;SDS011;6134;59.284;18.022;2023-03-17T10:23:40;4.57;;;0.93;;
12141;SDS011;6134;59.284;18.022;2023-03-17T10:26:23;3.03;;;0.95;;
12141;SDS011;6134;59.284;18.022;2023-03-17T10:28:54;3.97;;;1.10;;
12141;SDS011;6134;59.284;18.022;2023-03-17T10:31:26;2.00;;;0.93;;
12141;SDS011;6134;59.284;18.022;2023-03-17T10:33:56;4.22;;;1.10;;
12141;SDS011;6134;59.284;18.022;2023-03-17T10:36:33;3.58;;;0.98;;
12141;SDS011;6134;59.284;18.022;2023-03-17T10:39:03;4.28;;;1.00;;
12141;SDS011;6134;59.284;18.022;2023-03-17T10:41:34;2.50;;;0.73;;
12141;SDS011;6134;59.284;18.022;2023-03-17T10:44:04;2.28;;;0.73;;
12141;SDS011;6134;59.284;18.022;2023-03-17T10:46:36;2.03;;;0.80;;
12141;SDS011;6134;59.284;18.022;2023-03-17T10:49:08;4.13;;;0.95;;
12141;SDS011;6134;59.284;18.022;2023-03-17T10:51:37;3.45;;;1.33;;
12141;SDS011;6134;59.284;18.022;2023-03-17T10:54:07;2.05;;;0.82;;
12141;SDS011;6134;59.284;18.022;2023-03-17T10:56:37;1.88;;;0.85;;
12141;SDS011;6134;59.284;18.022;2023-03-17T10:59:12;3.75;;;1.05;;
12141;SDS011;6134;59.284;18.022;2023-03-17T11:01:43;6.60;;;1.52;;
12141;SDS011;6134;59.284;18.022;2023-03-17T11:07:06;2.60;;;0.90;;
12141;SDS011;6134;59.284;18.022;2023-03-17T11:09:36;1.55;;;0.80;;
12141;SDS011;6134;59.284;18.022;2023-03-17T11:12:06;2.42;;;0.90;;
12141;SDS011;6134;59.284;18.022;2023-03-17T11:14:36;1.65;;;0.90;;
12141;SDS011;6134;59.284;18.022;2023-03-17T11:17:12;2.65;;;1.13;;
12141;SDS011;6134;59.284;18.022;2023-03-17T11:19:46;0.80;;;0.70;;
12141;SDS011;6134;59.284;18.022;2023-03-17T11:22:21;5.10;;;1.20;;
12141;SDS011;6134;59.284;18.022;2023-03-17T11:24:54;1.33;;;0.70;;
12141;SDS011;6134;59.284;18.022;2023-03-17T11:27:27;1.30;;;0.90;;
12141;SDS011;6134;59.284;18.022;2023-03-17T11:30:03;2.67;;;0.90;;
12141;SDS011;6134;59.284;18.022;2023-03-17T11:32:39;4.03;;;0.90;;
12141;SDS011;6134;59.284;18.022;2023-03-17T11:38:06;2.67;;;1.00;;
12141;SDS011;6134;59.284;18.022;2023-03-17T11:40:38;1.20;;;0.98;;
12141;SDS011;6134;59.284;18.022;2023-03-17T11:43:13;2.30;;;0.90;;
12141;SDS011;6134;59.284;18.022;2023-03-17T11:45:46;1.80;;;0.90;;
12141;SDS011;6134;59.284;18.022;2023-03-17T11:48:24;1.40;;;0.90;;
12141;SDS011;6134;59.284;18.022;2023-03-17T11:50:56;4.05;;;1.00;;
12141;SDS011;6134;59.284;18.022;2023-03-17T11:53:36;2.75;;;0.95;;
12141;SDS011;6134;59.284;18.022;2023-03-17T11:56:08;5.18;;;1.10;;
12141;SDS011;6134;59.284;18.022;2023-03-17T11:58:39;1.98;;;1.00;;
12141;SDS011;6134;59.284;18.022;2023-03-17T12:01:11;2.10;;;1.02;;
12141;SDS011;6134;59.284;18.022;2023-03-17T12:03:42;4.15;;;1.25;;
12141;SDS011;6134;59.284;18.022;2023-03-17T12:06:14;5.07;;;1.10;;
12141;SDS011;6134;59.284;18.022;2023-03-17T12:08:49;2.85;;;0.85;;
12141;SDS011;6134;59.284;18.022;2023-03-17T12:11:22;3.35;;;1.55;;
12141;SDS011;6134;59.284;18.022;2023-03-17T12:13:52;8.73;;;1.42;;
12141;SDS011;6134;59.284;18.022;2023-03-17T12:16:25;6.85;;;1.85;;
12141;SDS011;6134;59.284;18.022;2023-03-17T12:18:58;2.50;;;1.23;;
12141;SDS011;6134;59.284;18.022;2023-03-17T12:21:29;3.03;;;1.40;;
12141;SDS011;6134;59.284;18.022;2023-03-17T12:24:04;2.53;;;1.08;;
12141;SDS011;6134;59.284;18.022;2023-03-17T12:26:37;6.72;;;1.23;;
12141;SDS011;6134;59.284;18.022;2023-03-17T12:29:09;5.32;;;1.35;;
12141;SDS011;6134;59.284;18.022;2023-03-17T12:31:40;3.33;;;1.23;;
12141;SDS011;6134;59.284;18.022;2023-03-17T12:34:12;5.32;;;1.35;;
12141;SDS011;6134;59.284;18.022;2023-03-17T12:36:42;4.03;;;1.40;;
12141;SDS011;6134;59.284;18.022;2023-03-17T12:39:13;3.97;;;1.23;;
12141;SDS011;6134;59.284;18.022;2023-03-17T12:41:48;3.15;;;1.23;;
12141;SDS011;6134;59.284;18.022;2023-03-17T12:44:25;3.75;;;1.23;;
12141;SDS011;6134;59.284;18.022;2023-03-17T12:47:01;2.22;;;1.10;;
12141;SDS011;6134;59.284;18.022;2023-03-17T12:49:44;2.03;;;1.02;;
12141;SDS011;6134;59.284;18.022;2023-03-17T12:52:18;2.40;;;1.00;;
12141;SDS011;6134;59.284;18.022;2023-03-17T12:54:50;3.42;;;1.05;;
12141;SDS011;6134;59.284;18.022;2023-03-17T12:57:20;6.60;;;1.50;;
12141;SDS011;6134;59.284;18.022;2023-03-17T12:59:56;1.75;;;1.10;;
12141;SDS011;6134;59.284;18.022;2023-03-17T13:02:30;2.40;;;1.05;;
12141;SDS011;6134;59.284;18.022;2023-03-17T13:04:59;2.08;;;1.13;;
12141;SDS011;6134;59.284;18.022;2023-03-17T13:07:35;3.60;;;1.23;;
12141;SDS011;6134;59.284;18.022;2023-03-17T13:10:16;2.53;;;1.00;;
12141;SDS011;6134;59.284;18.022;2023-03-17T13:15:51;2.65;;;1.27;;
12141;SDS011;6134;59.284;18.022;2023-03-17T13:21:17;2.53;;;1.00;;
12141;SDS011;6134;59.284;18.022;2023-03-17T13:23:47;2.67;;;1.50;;
12141;SDS011;6134;59.284;18.022;2023-03-17T13:26:48;7.55;;;1.58;;
12141;SDS011;6134;59.284;18.022;2023-03-17T13:29:21;4.97;;;1.40;;
12141;SDS011;6134;59.284;18.022;2023-03-17T13:31:50;6.22;;;1.60;;
12141;SDS011;6134;59.284;18.022;2023-03-17T13:34:19;4.50;;;1.60;;
12141;SDS011;6134;59.284;18.022;2023-03-17T13:36:56;3.33;;;1.00;;
12141;SDS011;6134;59.284;18.022;2023-03-17T13:39:42;2.25;;;1.42;;
12141;SDS011;6134;59.284;18.022;2023-03-17T13:42:20;3.08;;;1.25;;
12141;SDS011;6134;59.284;18.022;2023-03-17T13:47:41;6.55;;;1.15;;
12141;SDS011;6134;59.284;18.022;2023-03-17T13:50:12;4.55;;;1.50;;
12141;SDS011;6134;59.284;18.022;2023-03-17T13:52:45;7.32;;;1.95;;
12141;SDS011;6134;59.284;18.022;2023-03-17T13:55:31;4.25;;;1.70;;
12141;SDS011;6134;59.284;18.022;2023-03-17T13:58:22;4.05;;;1.60;;
12141;SDS011;6134;59.284;18.022;2023-03-17T14:00:56;8.02;;;1.98;;
12141;SDS011;6134;59.284;18.022;2023-03-17T14:03:29;4.03;;;1.60;;
12141;SDS011;6134;59.284;18.022;2023-03-17T14:05:59;3.20;;;1.73;;
12141;SDS011;6134;59.284;18.022;2023-03-17T14:08:30;2.58;;;1.27;;
12141;SDS011;6134;59.284;18.022;2023-03-17T14:11:00;4.97;;;1.25;;
12141;SDS011;6134;59.284;18.022;2023-03-17T14:13:31;2.92;;;1.55;;
12141;SDS011;6134;59.284;18.022;2023-03-17T14:16:03;2.35;;;1.60;;
12141;SDS011;6134;59.284;18.022;2023-03-17T14:18:33;5.28;;;1.48;;
12141;SDS011;6134;59.284;18.022;2023-03-17T14:21:04;3.15;;;1.20;;
12141;SDS011;6134;59.284;18.022;2023-03-17T14:23:37;3.25;;;1.58;;
12141;SDS011;6134;59.284;18.022;2023-03-17T14:26:08;4.10;;;1.20;;
12141;SDS011;6134;59.284;18.022;2023-03-17T14:28:39;2.72;;;1.35;;
12141;SDS011;6134;59.284;18.022;2023-03-17T14:31:15;4.03;;;1.50;;
12141;SDS011;6134;59.284;18.022;2023-03-17T14:33:46;3.25;;;1.33;;
12141;SDS011;6134;59.284;18.022;2023-03-17T14:36:15;8.25;;;1.52;;
12141;SDS011;6134;59.284;18.022;2023-03-17T14:38:46;4.82;;;1.88;;
12141;SDS011;6134;59.284;18.022;2023-03-17T14:41:15;3.38;;;1.40;;
12141;SDS011;6134;59.284;18.022;2023-03-17T14:43:46;3.58;;;1.70;;
12141;SDS011;6134;59.284;18.022;2023-03-17T14:46:15;4.50;;;1.60;;
12141;SDS011;6134;59.284;18.022;2023-03-17T14:48:46;6.25;;;2.17;;
12141;SDS011;6134;59.284;18.022;2023-03-17T14:51:18;5.20;;;1.30;;
12141;SDS011;6134;59.284;18.022;2023-03-17T14:53:51;2.28;;;1.20;;
12141;SDS011;6134;59.284;18.022;2023-03-17T14:56:20;7.68;;;3.03;;
12141;SDS011;6134;59.284;18.022;2023-03-17T14:58:51;5.03;;;1.88;;
12141;SDS011;6134;59.284;18.022;2023-03-17T15:01:21;2.92;;;1.52;;
12141;SDS011;6134;59.284;18.022;2023-03-17T15:03:54;4.35;;;1.58;;
12141;SDS011;6134;59.284;18.022;2023-03-17T15:06:24;3.42;;;1.52;;
12141;SDS011;6134;59.284;18.022;2023-03-17T15:08:53;5.18;;;1.85;;
12141;SDS011;6134;59.284;18.022;2023-03-17T15:11:23;5.00;;;1.83;;
12141;SDS011;6134;59.284;18.022;2023-03-17T15:13:54;3.20;;;1.85;;
12141;SDS011;6134;59.284;18.022;2023-03-17T15:16:24;5.00;;;1.35;;
12141;SDS011;6134;59.284;18.022;2023-03-17T15:19:06;7.13;;;1.83;;
12141;SDS011;6134;59.284;18.022;2023-03-17T15:21:37;4.03;;;1.50;;
12141;SDS011;6134;59.284;18.022;2023-03-17T15:24:18;6.82;;;1.42;;
12141;SDS011;6134;59.284;18.022;2023-03-17T15:26:48;5.65;;;1.45;;